createdAt,value
2023-05-22T00:01:29.202Z,96119.19
2023-05-22T00:03:55.584Z,96116.03
2023-05-22T00:06:21.973Z,96115.03
2023-05-22T00:08:48.348Z,96110.25
2023-05-22T00:11:14.711Z,96110.28
2023-05-22T00:13:41.107Z,96116.16
2023-05-22T00:16:07.508Z,96119.84
2023-05-22T00:18:33.939Z,96113.03
2023-05-22T00:21:00.391Z,96113.03
2023-05-22T00:23:26.822Z,96113.69
2023-05-22T00:25:53.277Z,96113.19
2023-05-22T00:28:19.667Z,96117.47
2023-05-22T00:30:46.051Z,96116.22
2023-05-22T00:33:12.453Z,96116.47
2023-05-22T00:35:38.889Z,96122.88
2023-05-22T00:38:05.272Z,96118.72
2023-05-22T00:40:31.655Z,96110.25
2023-05-22T00:42:58.091Z,96112.34
2023-05-22T00:45:24.548Z,96105.50
2023-05-22T00:47:51.017Z,96104.72
2023-05-22T00:50:17.427Z,96103.91
2023-05-22T00:52:43.846Z,96104.53
2023-05-22T00:55:10.281Z,96096.66
2023-05-22T00:57:36.710Z,96106.69
2023-05-22T01:00:03.138Z,96100.91
2023-05-22T01:02:29.535Z,96110.47
2023-05-22T01:04:56.113Z,96107.06
2023-05-22T01:07:22.507Z,96105.25
2023-05-22T01:09:48.881Z,96110.00
2023-05-22T01:12:15.300Z,96104.25
2023-05-22T01:14:41.752Z,96099.56
2023-05-22T01:17:08.140Z,96097.19
2023-05-22T01:19:34.638Z,96094.00
2023-05-22T01:22:01.151Z,96092.19
2023-05-22T01:24:27.587Z,96091.19
2023-05-22T01:26:54.082Z,96088.28
2023-05-22T01:29:20.523Z,96089.38
2023-05-22T01:31:46.953Z,96093.31
2023-05-22T01:34:13.355Z,96089.66
2023-05-22T01:36:39.753Z,96093.66
2023-05-22T01:39:06.138Z,96082.28
2023-05-22T01:41:32.505Z,96079.91
2023-05-22T01:43:58.930Z,96087.09
2023-05-22T01:46:25.480Z,96088.69
2023-05-22T01:48:52.034Z,96086.59
2023-05-22T01:51:18.495Z,96092.94
2023-05-22T01:53:44.877Z,96092.94
2023-05-22T01:56:11.252Z,96105.22
2023-05-22T01:58:37.680Z,96105.03
2023-05-22T02:01:04.101Z,96096.91
2023-05-22T02:03:30.631Z,96096.91
2023-05-22T02:05:57.102Z,96101.44
2023-05-22T02:08:23.470Z,96103.56
2023-05-22T02:10:49.831Z,96097.50
2023-05-22T02:13:16.265Z,96103.38
2023-05-22T02:15:42.709Z,96093.59
2023-05-22T02:18:09.238Z,96103.53
2023-05-22T02:20:35.634Z,96105.38
2023-05-22T02:23:02.012Z,96102.81
2023-05-22T02:25:28.416Z,96109.69
2023-05-22T02:27:54.859Z,96103.94
2023-05-22T02:30:21.285Z,96104.97
2023-05-22T02:32:47.737Z,96105.50
2023-05-22T02:35:14.126Z,96100.19
2023-05-22T02:37:40.512Z,96106.56
2023-05-22T02:40:06.901Z,96111.38
2023-05-22T02:42:33.334Z,96111.69
2023-05-22T02:44:59.761Z,96114.63
2023-05-22T02:47:26.207Z,96108.25
2023-05-22T02:49:52.663Z,96114.09
2023-05-22T02:52:19.040Z,96108.03
2023-05-22T02:54:45.421Z,96111.97
2023-05-22T02:57:11.844Z,96117.00
2023-05-22T02:59:38.276Z,96115.16
2023-05-22T03:02:04.748Z,96110.91
2023-05-22T03:04:31.207Z,96110.94
2023-05-22T03:06:57.597Z,96115.69
2023-05-22T03:09:23.966Z,96113.31
2023-05-22T03:11:50.397Z,96119.41
2023-05-22T03:14:16.834Z,96123.88
2023-05-22T03:16:43.366Z,96118.06
2023-05-22T03:19:09.911Z,96111.41
2023-05-22T03:21:36.373Z,96117.56
2023-05-22T03:24:02.758Z,96125.19
2023-05-22T03:26:29.185Z,96123.34
2023-05-22T03:28:55.616Z,96116.75
2023-05-22T03:31:22.023Z,96115.66
2023-05-22T03:33:48.437Z,96118.84
2023-05-22T03:36:14.854Z,96119.41
2023-05-22T03:38:41.289Z,96120.44
2023-05-22T03:41:07.689Z,96124.88
2023-05-22T03:43:34.059Z,96117.75
2023-05-22T03:46:00.471Z,96114.06
2023-05-22T03:48:26.888Z,96124.09
2023-05-22T03:50:53.277Z,96115.66
2023-05-22T03:53:19.698Z,96122.50
2023-05-22T03:55:46.117Z,96120.91
2023-05-22T03:58:12.505Z,96120.41
2023-05-22T04:00:39.010Z,96128.31
2023-05-22T04:03:05.680Z,96125.72
2023-05-22T04:05:32.159Z,96125.72
2023-05-22T04:07:58.642Z,96127.31
2023-05-22T04:10:25.022Z,96130.97
2023-05-22T04:12:51.436Z,96135.75
2023-05-22T04:15:17.820Z,96131.00
2023-05-22T04:17:44.325Z,96131.28
2023-05-22T04:20:10.767Z,96139.44
2023-05-22T04:22:37.150Z,96138.91
2023-05-22T04:25:03.586Z,96140.25
2023-05-22T04:27:30.033Z,96137.84
2023-05-22T04:29:56.420Z,96138.34
2023-05-22T04:32:22.853Z,96138.34
2023-05-22T04:34:49.296Z,96139.91
2023-05-22T04:37:15.672Z,96140.38
2023-05-22T04:39:42.056Z,96152.53
2023-05-22T04:42:08.509Z,96143.00
2023-05-22T04:44:34.934Z,96141.66
2023-05-22T04:47:01.368Z,96135.09
2023-05-22T04:49:27.826Z,96136.16
2023-05-22T04:51:54.217Z,96133.50
2023-05-22T04:54:20.647Z,96137.44
2023-05-22T04:56:47.037Z,96137.66
2023-05-22T04:59:13.415Z,96140.25
2023-05-22T05:01:39.948Z,96141.78
2023-05-22T05:04:06.785Z,96136.56
2023-05-22T05:06:33.368Z,96146.59
2023-05-22T05:08:59.798Z,96148.69
2023-05-22T05:11:26.238Z,96155.03
2023-05-22T05:13:52.701Z,96153.97
2023-05-22T05:16:19.161Z,96157.16
2023-05-22T05:18:45.606Z,96157.94
2023-05-22T05:21:12.071Z,96163.47
2023-05-22T05:23:38.503Z,96156.63
2023-05-22T05:26:04.909Z,96161.13
2023-05-22T05:28:31.284Z,96155.56
2023-05-22T05:30:57.696Z,96153.19
2023-05-22T05:33:24.141Z,96154.47
2023-05-22T05:35:50.550Z,96153.16
2023-05-22T05:38:16.918Z,96148.91
2023-05-22T05:40:43.283Z,96148.34
2023-05-22T05:43:09.684Z,96135.41
2023-05-22T05:45:36.117Z,96138.56
2023-05-22T05:48:02.563Z,96144.34
2023-05-22T05:50:29.031Z,96145.41
2023-05-22T05:52:55.485Z,96142.75
2023-05-22T05:55:21.925Z,96148.53
2023-05-22T05:57:48.330Z,96145.06
2023-05-22T06:00:14.762Z,96149.06
2023-05-22T06:02:41.211Z,96154.28
2023-05-22T06:05:07.687Z,96154.81
2023-05-22T06:07:34.157Z,96162.75
2023-05-22T06:10:00.545Z,96147.88
2023-05-22T06:12:26.914Z,96160.03
2023-05-22T06:14:53.356Z,96168.78
2023-05-22T06:17:19.755Z,96162.19
2023-05-22T06:19:46.142Z,96162.13
2023-05-22T06:22:12.560Z,96169.00
2023-05-22T06:24:39.071Z,96163.41
2023-05-22T06:27:05.499Z,96170.53
2023-05-22T06:29:31.935Z,96177.97
2023-05-22T06:31:58.353Z,96171.16
2023-05-22T06:34:24.807Z,96173.28
2023-05-22T06:36:51.219Z,96176.38
2023-05-22T06:39:17.661Z,96180.09
2023-05-22T06:41:44.039Z,96183.28
2023-05-22T06:44:10.414Z,96180.09
2023-05-22T06:46:36.879Z,96181.38
2023-05-22T06:49:03.369Z,96174.72
2023-05-22T06:51:29.759Z,96184.00
2023-05-22T06:53:56.125Z,96179.16
2023-05-22T06:56:22.549Z,96185.72
2023-05-22T06:58:48.945Z,96179.84
2023-05-22T07:01:15.444Z,96190.53
2023-05-22T07:03:41.863Z,96182.09
2023-05-22T07:06:08.341Z,96185.25
2023-05-22T07:08:34.829Z,96179.41
2023-05-22T07:11:01.219Z,96180.97
2023-05-22T07:13:27.612Z,96186.19
2023-05-22T07:15:54.048Z,96182.88
2023-05-22T07:18:20.486Z,96185.56
2023-05-22T07:20:46.935Z,96186.56
2023-05-22T07:23:13.367Z,96187.06
2023-05-22T07:25:39.751Z,96188.31
2023-05-22T07:28:06.177Z,96193.41
2023-05-22T07:30:32.578Z,96195.03
2023-05-22T07:32:59.036Z,96196.13
2023-05-22T07:35:25.499Z,96197.25
2023-05-22T07:37:51.888Z,96190.75
2023-05-22T07:40:18.334Z,96200.72
2023-05-22T07:42:44.772Z,96206.59
2023-05-22T07:45:11.163Z,96197.41
2023-05-22T07:47:37.640Z,96193.38
2023-05-22T07:50:04.107Z,96192.84
2023-05-22T07:52:30.572Z,96190.72
2023-05-22T07:54:56.962Z,96192.25
2023-05-22T07:57:23.342Z,96185.84
2023-05-22T07:59:49.789Z,96189.00
2023-05-22T08:02:16.249Z,96185.03
2023-05-22T08:04:42.789Z,96177.34
2023-05-22T08:07:09.361Z,96184.19
2023-05-22T08:09:35.782Z,96178.28
2023-05-22T08:12:02.208Z,96185.66
2023-05-22T08:14:28.586Z,96176.69
2023-05-22T08:16:55.135Z,96182.38
2023-05-22T08:19:21.720Z,96182.63
2023-05-22T08:21:48.227Z,96178.44
2023-05-22T08:24:14.623Z,96167.50
2023-05-22T08:26:41.007Z,96165.81
2023-05-22T08:29:07.396Z,96164.00
2023-05-22T08:31:33.868Z,96157.91
2023-05-22T08:34:00.370Z,96161.50
2023-05-22T08:36:26.761Z,96160.16
2023-05-22T08:38:53.211Z,96155.75
2023-05-22T08:41:19.589Z,96163.44
2023-05-22T08:43:46.013Z,96165.25
2023-05-22T08:46:12.397Z,96160.84
2023-05-22T08:48:38.848Z,96156.75
2023-05-22T08:51:05.250Z,96158.47
2023-05-22T08:53:31.646Z,96155.81
2023-05-22T08:55:58.084Z,96160.50
2023-05-22T08:58:24.496Z,96161.53
2023-05-22T09:00:50.984Z,96158.34
2023-05-22T09:03:17.436Z,96159.88
2023-05-22T09:05:43.889Z,96162.91
2023-05-22T09:08:19.849Z,96156.84
2023-05-22T09:10:47.536Z,96158.41
2023-05-22T09:13:13.966Z,96164.28
2023-05-22T09:15:40.353Z,96165.06
2023-05-22T09:18:06.893Z,96159.75
2023-05-22T09:20:33.342Z,96159.03
2023-05-22T09:22:59.740Z,96155.88
2023-05-22T09:25:26.159Z,96154.94
2023-05-22T09:27:52.539Z,96156.09
2023-05-22T09:30:18.983Z,96159.88
2023-05-22T09:32:45.522Z,96152.84
2023-05-22T09:35:11.934Z,96145.41
2023-05-22T09:37:38.378Z,96147.63
2023-05-22T09:40:04.829Z,96139.06
2023-05-22T09:42:31.229Z,96142.94
2023-05-22T09:44:57.604Z,96140.00
2023-05-22T09:47:24.096Z,96139.78
2023-05-22T09:49:50.548Z,96138.06
2023-05-22T09:52:16.994Z,96136.13
2023-05-22T09:54:43.441Z,96133.75
2023-05-22T09:57:09.832Z,96131.41
2023-05-22T09:59:36.257Z,96139.53
2023-05-22T10:02:02.782Z,96139.16
2023-05-22T10:04:30.510Z,96136.69
2023-05-22T10:06:56.932Z,96140.31
2023-05-22T10:09:23.379Z,96125.84
2023-05-22T10:11:49.762Z,96133.25
2023-05-22T10:14:16.197Z,96133.34
2023-05-22T10:16:42.932Z,96126.84
2023-05-22T10:19:09.467Z,96126.84
2023-05-22T10:21:35.895Z,96127.03
2023-05-22T10:24:02.267Z,96128.63
2023-05-22T10:26:28.697Z,96124.47
2023-05-22T10:28:55.075Z,96119.19
2023-05-22T10:31:21.450Z,96120.16
2023-05-22T10:33:47.947Z,96115.72
2023-05-22T10:36:14.454Z,96116.22
2023-05-22T10:38:40.833Z,96113.84
2023-05-22T10:41:07.282Z,96114.72
2023-05-22T10:43:33.785Z,96112.22
2023-05-22T10:46:00.277Z,96107.50
2023-05-22T10:48:26.797Z,96113.78
2023-05-22T10:50:53.174Z,96104.09
2023-05-22T10:53:19.554Z,96113.78
2023-05-22T10:55:45.998Z,96105.09
2023-05-22T10:58:12.377Z,96115.75
2023-05-22T11:00:38.994Z,96111.38
2023-05-22T11:03:17.261Z,96102.53
2023-05-22T11:05:44.843Z,96106.78
2023-05-22T11:08:11.257Z,96092.16
2023-05-22T11:10:37.728Z,96097.97
2023-05-22T11:13:04.264Z,96092.94
2023-05-22T11:15:30.728Z,96095.69
2023-05-22T11:17:57.379Z,96090.19
2023-05-22T11:20:23.782Z,96091.84
2023-05-22T11:22:50.183Z,96088.63
2023-05-22T11:25:16.670Z,96083.44
2023-05-22T11:27:43.173Z,96082.66
2023-05-22T11:30:09.569Z,96077.72
2023-05-22T11:32:36.005Z,96082.59
2023-05-22T11:35:02.390Z,96074.44
2023-05-22T11:37:28.809Z,96069.94
2023-05-22T11:39:55.199Z,96064.22
2023-05-22T11:42:21.624Z,96070.53
2023-05-22T11:44:48.029Z,96070.56
2023-05-22T11:47:14.453Z,96065.28
2023-05-22T11:49:40.881Z,96055.84
2023-05-22T11:52:07.261Z,96057.66
2023-05-22T11:54:34.803Z,96056.44
2023-05-22T11:57:02.789Z,96046.91
2023-05-22T11:59:29.235Z,96046.97
2023-05-22T12:01:55.623Z,96052.81
2023-05-22T12:04:22.047Z,96055.47
2023-05-22T12:06:48.727Z,96055.28
2023-05-22T12:09:15.176Z,96055.13
2023-05-22T12:11:41.590Z,96052.19
2023-05-22T12:14:08.134Z,96043.75
2023-05-22T12:16:34.596Z,96051.72
2023-05-22T12:19:01.041Z,96055.66
2023-05-22T12:21:27.506Z,96054.88
2023-05-22T12:23:53.957Z,96055.34
2023-05-22T12:26:20.371Z,96042.81
2023-05-22T12:28:46.793Z,96052.22
2023-05-22T12:31:13.230Z,96048.78
2023-05-22T12:33:39.685Z,96042.06
2023-05-22T12:36:06.109Z,96041.88
2023-05-22T12:38:34.779Z,96030.44
2023-05-22T12:41:01.859Z,96028.91
2023-05-22T12:43:28.285Z,96024.28
2023-05-22T12:45:54.701Z,96029.00
2023-05-22T12:48:21.153Z,96025.84
2023-05-22T12:50:47.584Z,96028.25
2023-05-22T12:53:14.031Z,96025.25
2023-05-22T12:55:40.652Z,96036.88
2023-05-22T12:58:07.068Z,96020.81
2023-05-22T13:00:33.444Z,96019.06
2023-05-22T13:02:59.839Z,96022.06
2023-05-22T13:05:26.337Z,96014.19
2023-05-22T13:07:52.725Z,96012.00
2023-05-22T13:10:19.163Z,96009.06
2023-05-22T13:12:45.547Z,96009.06
2023-05-22T13:15:12.024Z,96009.88
2023-05-22T13:17:38.444Z,96009.16
2023-05-22T13:20:04.866Z,96014.41
2023-05-22T13:22:31.361Z,96017.19
2023-05-22T13:24:57.909Z,96006.59
2023-05-22T13:27:24.356Z,96010.53
2023-05-22T13:29:50.735Z,96002.69
2023-05-22T13:32:17.103Z,95998.94
2023-05-22T13:34:43.635Z,95989.22
2023-05-22T13:37:10.224Z,95989.56
2023-05-22T13:39:36.655Z,95981.53
2023-05-22T13:42:03.086Z,95979.50
2023-05-22T13:44:29.534Z,95983.59
2023-05-22T13:46:56.033Z,95974.81
2023-05-22T13:49:22.447Z,95980.63
2023-05-22T13:51:48.871Z,95977.63
2023-05-22T13:54:15.268Z,95974.47
2023-05-22T13:56:41.716Z,95967.78
2023-05-22T13:59:09.348Z,95978.75
2023-05-22T14:01:36.066Z,95971.63
2023-05-22T14:04:03.058Z,95979.78
2023-05-22T14:06:29.476Z,95975.00
2023-05-22T14:08:55.860Z,95969.66
2023-05-22T14:11:22.314Z,95975.94
2023-05-22T14:13:48.759Z,95976.66
2023-05-22T14:16:15.164Z,95974.41
2023-05-22T14:18:41.541Z,95973.00
2023-05-22T14:21:07.972Z,95973.50
2023-05-22T14:23:34.399Z,95975.06
2023-05-22T14:26:00.765Z,95974.16
2023-05-22T14:28:27.146Z,95969.28
2023-05-22T14:30:53.625Z,95965.25
2023-05-22T14:33:20.100Z,95970.03
2023-05-22T14:35:46.481Z,95964.97
2023-05-22T14:38:12.893Z,95968.59
2023-05-22T14:40:39.282Z,95976.81
2023-05-22T14:43:05.657Z,95969.72
2023-05-22T14:45:32.035Z,95976.94
2023-05-22T14:47:58.543Z,95972.38
2023-05-22T14:50:24.973Z,95977.09
2023-05-22T14:52:51.397Z,95973.16
2023-05-22T14:55:17.996Z,95975.28
2023-05-22T14:57:44.467Z,95959.88
2023-05-22T15:00:10.900Z,95965.03
2023-05-22T15:02:37.390Z,95968.19
2023-05-22T15:05:03.866Z,95975.63
2023-05-22T15:07:42.934Z,95970.88
2023-05-22T15:10:10.777Z,95968.84
2023-05-22T15:12:37.272Z,95968.56
2023-05-22T15:15:03.746Z,95982.09
2023-05-22T15:17:30.183Z,95980.06
2023-05-22T15:19:56.650Z,95975.69
2023-05-22T15:22:23.106Z,95979.47
2023-05-22T15:24:49.581Z,95987.66
2023-05-22T15:27:15.981Z,95991.00
2023-05-22T15:29:42.391Z,95991.94
2023-05-22T15:32:08.799Z,95988.19
2023-05-22T15:34:35.246Z,95995.09
2023-05-22T15:37:01.650Z,95993.81
2023-05-22T15:39:28.082Z,96000.84
2023-05-22T15:42:05.279Z,96006.06
2023-05-22T15:44:33.051Z,95997.88
2023-05-22T15:46:59.549Z,95999.28
2023-05-22T15:49:27.399Z,95991.91
2023-05-22T15:51:55.093Z,95992.25
2023-05-22T15:54:21.531Z,95990.22
2023-05-22T15:56:47.957Z,95986.28
2023-05-22T15:59:14.334Z,95985.97
2023-05-22T16:01:40.862Z,95983.94
2023-05-22T16:04:07.304Z,95990.06
2023-05-22T16:06:33.740Z,95997.44
2023-05-22T16:09:00.187Z,95984.03
2023-05-22T16:11:26.604Z,95992.44
2023-05-22T16:13:53.110Z,95990.06
2023-05-22T16:16:19.633Z,95976.94
2023-05-22T16:18:46.086Z,95979.72
2023-05-22T16:21:12.510Z,95978.44
2023-05-22T16:23:38.919Z,95973.09
2023-05-22T16:26:05.360Z,95993.09
2023-05-22T16:28:31.763Z,95977.16
2023-05-22T16:30:58.183Z,95985.00
2023-05-22T16:33:24.572Z,95988.50
2023-05-22T16:35:51.022Z,95976.59
2023-05-22T16:38:17.408Z,95997.34
2023-05-22T16:40:43.835Z,95985.91
2023-05-22T16:43:10.219Z,95984.59
2023-05-22T16:45:36.602Z,95983.59
2023-05-22T16:48:03.059Z,95969.47
2023-05-22T16:50:29.485Z,95984.94
2023-05-22T16:52:55.848Z,95975.03
2023-05-22T16:55:22.281Z,95967.47
2023-05-22T16:57:48.675Z,95972.50
2023-05-22T17:00:15.241Z,95971.91
2023-05-22T17:02:42.288Z,95982.91
2023-05-22T17:05:08.722Z,95992.06
2023-05-22T17:07:35.172Z,95991.00
2023-05-22T17:10:01.607Z,95995.38
2023-05-22T17:12:28.057Z,96002.78
2023-05-22T17:14:54.493Z,95991.78
2023-05-22T17:17:20.884Z,96000.44
2023-05-22T17:19:47.255Z,95999.97
2023-05-22T17:22:13.672Z,96001.06
2023-05-22T17:24:40.094Z,96003.88
2023-05-22T17:27:06.495Z,95999.78
2023-05-22T17:29:32.863Z,96011.09
2023-05-22T17:31:59.310Z,96016.41
2023-05-22T17:34:25.729Z,96029.28
2023-05-22T17:36:52.103Z,96033.94
2023-05-22T17:39:18.512Z,96037.84
2023-05-22T17:41:44.890Z,96043.94
2023-05-22T17:44:11.312Z,96052.31
2023-05-22T17:46:37.809Z,96046.78
2023-05-22T17:49:04.298Z,96055.41
2023-05-22T17:51:30.676Z,96056.91
2023-05-22T17:53:57.172Z,96046.22
2023-05-22T17:56:23.549Z,96050.53
2023-05-22T17:58:49.971Z,96042.22
2023-05-22T18:01:16.373Z,96049.72
2023-05-22T18:03:42.865Z,96052.50
2023-05-22T18:06:09.403Z,96054.34
2023-05-22T18:08:35.886Z,96055.03
2023-05-22T18:11:02.276Z,96055.44
2023-05-22T18:13:28.642Z,96056.00
2023-05-22T18:15:55.048Z,96059.38
2023-05-22T18:18:21.509Z,96057.31
2023-05-22T18:20:47.945Z,96058.31
2023-05-22T18:23:14.390Z,96058.97
2023-05-22T18:25:40.838Z,96056.03
2023-05-22T18:28:07.224Z,96060.44
2023-05-22T18:30:33.652Z,96057.63
2023-05-22T18:33:00.134Z,96068.88
2023-05-22T18:35:26.571Z,96073.13
2023-05-22T18:37:52.961Z,96083.88
2023-05-22T18:40:19.338Z,96076.88
2023-05-22T18:42:45.755Z,96072.28
2023-05-22T18:45:12.277Z,96080.88
2023-05-22T18:47:38.738Z,96086.59
2023-05-22T18:50:05.159Z,96087.19
2023-05-22T18:52:31.682Z,96082.63
2023-05-22T18:54:58.327Z,96084.94
2023-05-22T18:57:24.861Z,96091.06
2023-05-22T18:59:51.295Z,96081.38
2023-05-22T19:02:18.372Z,96083.66
2023-05-22T19:04:44.963Z,96083.09
2023-05-22T19:07:11.361Z,96084.31
2023-05-22T19:09:37.885Z,96076.88
2023-05-22T19:12:04.969Z,96080.13
2023-05-22T19:14:32.151Z,96081.69
2023-05-22T19:16:58.581Z,96084.47
2023-05-22T19:19:25.413Z,96079.38
2023-05-22T19:21:51.860Z,96084.28
2023-05-22T19:24:18.519Z,96091.19
2023-05-22T19:26:45.685Z,96093.34
2023-05-22T19:29:12.301Z,96096.91
2023-05-22T19:31:38.772Z,96085.88
2023-05-22T19:34:05.294Z,96083.09
2023-05-22T19:36:31.734Z,96084.88
2023-05-22T19:38:58.156Z,96092.75
2023-05-22T19:41:24.549Z,96082.81
2023-05-22T19:43:51.095Z,96082.81
2023-05-22T19:46:17.565Z,96093.94
2023-05-22T19:48:43.975Z,96088.63
2023-05-22T19:51:10.397Z,96086.56
2023-05-22T19:53:36.790Z,96087.06
2023-05-22T19:56:03.221Z,96085.28
2023-05-22T19:58:29.597Z,96086.06
2023-05-22T20:00:56.153Z,96087.06
2023-05-22T20:03:22.857Z,96098.28
2023-05-22T20:05:49.362Z,96101.03
2023-05-22T20:08:15.748Z,96096.91
2023-05-22T20:10:42.294Z,96099.25
2023-05-22T20:13:08.857Z,96097.69
2023-05-22T20:15:35.366Z,96107.31
2023-05-22T20:18:01.986Z,96110.50
2023-05-22T20:20:28.525Z,96112.84
2023-05-22T20:22:55.016Z,96125.63
2023-05-22T20:25:21.413Z,96129.97
2023-05-22T20:27:47.873Z,96136.41
2023-05-22T20:30:14.266Z,96149.19
2023-05-22T20:32:40.751Z,96158.41
2023-05-22T20:35:07.175Z,96160.81
2023-05-22T20:37:33.595Z,96158.31
2023-05-22T20:39:59.967Z,96167.94
2023-05-22T20:42:27.556Z,96169.84
2023-05-22T20:44:54.054Z,96165.34
2023-05-22T20:47:20.486Z,96163.78
2023-05-22T20:49:46.940Z,96161.03
2023-05-22T20:52:13.344Z,96165.28
2023-05-22T20:54:39.888Z,96163.47
2023-05-22T20:57:06.276Z,96176.09
2023-05-22T20:59:32.701Z,96174.72
2023-05-22T21:01:59.149Z,96177.88
2023-05-22T21:04:25.634Z,96179.47
2023-05-22T21:06:52.034Z,96182.91
2023-05-22T21:09:18.493Z,96184.97
2023-05-22T21:11:44.975Z,96179.09
2023-05-22T21:14:11.418Z,96181.44
2023-05-22T21:16:39.397Z,96183.34
2023-05-22T21:19:06.351Z,96183.34
2023-05-22T21:21:32.774Z,96190.72
2023-05-22T21:23:59.206Z,96197.59
2023-05-22T21:26:25.653Z,96199.19
2023-05-22T21:28:52.226Z,96191.31
2023-05-22T21:31:18.629Z,96199.94
2023-05-22T21:33:45.016Z,96199.28
2023-05-22T21:36:11.433Z,96194.34
2023-05-22T21:38:37.871Z,96203.41
2023-05-22T21:41:04.303Z,96203.97
2023-05-22T21:43:30.738Z,96204.38
2023-05-22T21:45:57.177Z,96199.66
2023-05-22T21:48:23.620Z,96195.34
2023-05-22T21:50:50.135Z,96199.00
2023-05-22T21:53:16.573Z,96196.34
2023-05-22T21:55:42.987Z,96203.81
2023-05-22T21:58:09.418Z,96199.34
2023-05-22T22:00:35.806Z,96193.75
2023-05-22T22:03:02.274Z,96202.81
2023-05-22T22:05:28.791Z,96201.72
2023-05-22T22:07:55.229Z,96198.50
2023-05-22T22:10:21.680Z,96202.03
2023-05-22T22:12:48.154Z,96205.53
2023-05-22T22:15:14.592Z,96208.72
2023-05-22T22:17:41.070Z,96205.59
2023-05-22T22:20:07.531Z,96202.53
2023-05-22T22:22:33.966Z,96207.41
2023-05-22T22:25:00.398Z,96203.66
2023-05-22T22:27:26.841Z,96196.69
2023-05-22T22:29:53.287Z,96207.41
2023-05-22T22:32:19.712Z,96195.19
2023-05-22T22:34:46.108Z,96198.13
2023-05-22T22:37:12.507Z,96199.72
2023-05-22T22:39:38.886Z,96195.91
2023-05-22T22:42:05.341Z,96192.28
2023-05-22T22:44:31.741Z,96184.72
2023-05-22T22:46:58.137Z,96195.56
2023-05-22T22:49:24.499Z,96190.72
2023-05-22T22:51:50.896Z,96194.44
2023-05-22T22:54:17.345Z,96190.81
2023-05-22T22:56:43.774Z,96196.84
2023-05-22T22:59:10.184Z,96202.16
2023-05-22T23:01:36.641Z,96195.81
2023-05-22T23:04:03.121Z,96201.75
2023-05-22T23:06:29.683Z,96203.91
2023-05-22T23:08:56.083Z,96199.97
2023-05-22T23:11:22.502Z,96194.38
2023-05-22T23:13:48.921Z,96197.19
2023-05-22T23:16:15.420Z,96201.13
2023-05-22T23:18:41.845Z,96200.63
2023-05-22T23:21:08.215Z,96203.28
2023-05-22T23:23:34.596Z,96204.34
2023-05-22T23:26:01.026Z,96203.34
2023-05-22T23:28:27.477Z,96213.44
2023-05-22T23:30:53.925Z,96206.56
2023-05-22T23:33:20.365Z,96194.38
2023-05-22T23:35:46.741Z,96200.25
2023-05-22T23:38:13.189Z,96206.31
2023-05-22T23:40:39.712Z,96204.97
2023-05-22T23:43:06.218Z,96207.13
2023-05-22T23:45:32.613Z,96208.69
2023-05-22T23:47:59.020Z,96206.56
2023-05-22T23:50:25.479Z,96206.56
2023-05-22T23:52:51.852Z,96205.41
2023-05-22T23:55:18.228Z,96210.28
2023-05-22T23:57:44.648Z,96203.94
